sensor_id;sensor_type;location;lat;lon;timestamp;temperature;humidity
51215;DHT22;63849;47.546;19.254;2023-06-19T00:01:20;18.60;64.40
51215;DHT22;63849;47.546;19.254;2023-06-19T00:03:46;18.50;64.60
51215;DHT22;63849;47.546;19.254;2023-06-19T00:06:11;18.50;64.70
51215;DHT22;63849;47.546;19.254;2023-06-19T00:08:40;18.40;64.80
51215;DHT22;63849;47.546;19.254;2023-06-19T00:11:08;18.40;65.10
51215;DHT22;63849;47.546;19.254;2023-06-19T00:13:34;18.40;65.20
51215;DHT22;63849;47.546;19.254;2023-06-19T00:16:00;18.40;65.50
51215;DHT22;63849;47.546;19.254;2023-06-19T00:18:27;18.40;65.80
51215;DHT22;63849;47.546;19.254;2023-06-19T00:20:53;18.40;66.00
51215;DHT22;63849;47.546;19.254;2023-06-19T00:23:22;18.30;66.20
51215;DHT22;63849;47.546;19.254;2023-06-19T00:25:48;18.40;66.60
51215;DHT22;63849;47.546;19.254;2023-06-19T00:28:14;18.30;66.70
51215;DHT22;63849;47.546;19.254;2023-06-19T00:30:41;18.20;66.90
51215;DHT22;63849;47.546;19.254;2023-06-19T00:33:07;18.20;67.00
51215;DHT22;63849;47.546;19.254;2023-06-19T00:35:33;18.20;67.10
51215;DHT22;63849;47.546;19.254;2023-06-19T00:37:59;18.10;66.80
51215;DHT22;63849;47.546;19.254;2023-06-19T00:40:30;18.10;66.70
51215;DHT22;63849;47.546;19.254;2023-06-19T00:42:56;18.10;66.80
51215;DHT22;63849;47.546;19.254;2023-06-19T00:45:23;18.10;67.00
51215;DHT22;63849;47.546;19.254;2023-06-19T00:47:53;18.10;67.10
51215;DHT22;63849;47.546;19.254;2023-06-19T00:50:23;18.10;67.30
51215;DHT22;63849;47.546;19.254;2023-06-19T00:52:49;18.00;67.60
51215;DHT22;63849;47.546;19.254;2023-06-19T00:55:15;17.90;67.50
51215;DHT22;63849;47.546;19.254;2023-06-19T00:57:42;17.90;67.50
51215;DHT22;63849;47.546;19.254;2023-06-19T01:00:08;17.90;67.50
51215;DHT22;63849;47.546;19.254;2023-06-19T01:02:36;17.90;67.60
51215;DHT22;63849;47.546;19.254;2023-06-19T01:05:02;17.90;67.80
51215;DHT22;63849;47.546;19.254;2023-06-19T01:08:10;17.90;67.80
51215;DHT22;63849;47.546;19.254;2023-06-19T01:10:49;17.90;67.80
51215;DHT22;63849;47.546;19.254;2023-06-19T01:13:31;17.90;67.80
51215;DHT22;63849;47.546;19.254;2023-06-19T01:15:58;17.80;67.90
51215;DHT22;63849;47.546;19.254;2023-06-19T01:18:25;17.70;67.80
51215;DHT22;63849;47.546;19.254;2023-06-19T01:20:52;17.80;67.80
51215;DHT22;63849;47.546;19.254;2023-06-19T01:23:18;17.80;68.00
51215;DHT22;63849;47.546;19.254;2023-06-19T01:25:44;17.80;67.80
51215;DHT22;63849;47.546;19.254;2023-06-19T01:28:11;17.70;68.00
51215;DHT22;63849;47.546;19.254;2023-06-19T01:30:41;17.70;67.60
51215;DHT22;63849;47.546;19.254;2023-06-19T01:33:28;17.80;67.30
51215;DHT22;63849;47.546;19.254;2023-06-19T01:35:57;17.70;67.40
51215;DHT22;63849;47.546;19.254;2023-06-19T01:38:24;17.60;67.70
51215;DHT22;63849;47.546;19.254;2023-06-19T01:40:55;17.60;67.60
51215;DHT22;63849;47.546;19.254;2023-06-19T01:43:23;17.60;67.80
51215;DHT22;63849;47.546;19.254;2023-06-19T01:45:49;17.50;67.80
51215;DHT22;63849;47.546;19.254;2023-06-19T01:48:15;17.50;68.00
51215;DHT22;63849;47.546;19.254;2023-06-19T01:50:47;17.50;68.00
51215;DHT22;63849;47.546;19.254;2023-06-19T01:53:14;17.50;68.10
51215;DHT22;63849;47.546;19.254;2023-06-19T01:55:40;17.50;67.90
51215;DHT22;63849;47.546;19.254;2023-06-19T01:58:06;17.60;67.60
51215;DHT22;63849;47.546;19.254;2023-06-19T02:00:32;17.50;67.80
51215;DHT22;63849;47.546;19.254;2023-06-19T02:03:01;17.50;67.90
51215;DHT22;63849;47.546;19.254;2023-06-19T02:05:27;17.50;67.90
51215;DHT22;63849;47.546;19.254;2023-06-19T02:07:53;17.60;67.50
51215;DHT22;63849;47.546;19.254;2023-06-19T02:10:19;17.60;67.50
51215;DHT22;63849;47.546;19.254;2023-06-19T02:12:44;17.60;67.30
51215;DHT22;63849;47.546;19.254;2023-06-19T02:15:10;17.70;67.30
51215;DHT22;63849;47.546;19.254;2023-06-19T02:17:36;17.70;67.40
51215;DHT22;63849;47.546;19.254;2023-06-19T02:20:02;17.60;67.20
51215;DHT22;63849;47.546;19.254;2023-06-19T02:22:28;17.70;67.20
51215;DHT22;63849;47.546;19.254;2023-06-19T02:24:54;17.70;67.00
51215;DHT22;63849;47.546;19.254;2023-06-19T02:27:20;17.70;67.10
51215;DHT22;63849;47.546;19.254;2023-06-19T02:29:45;17.70;67.50
51215;DHT22;63849;47.546;19.254;2023-06-19T02:32:11;17.50;67.80
51215;DHT22;63849;47.546;19.254;2023-06-19T02:34:37;17.50;67.80
51215;DHT22;63849;47.546;19.254;2023-06-19T02:37:03;17.50;67.90
51215;DHT22;63849;47.546;19.254;2023-06-19T02:39:29;17.50;67.90
51215;DHT22;63849;47.546;19.254;2023-06-19T02:41:55;17.50;68.00
51215;DHT22;63849;47.546;19.254;2023-06-19T02:44:20;17.50;68.00
51215;DHT22;63849;47.546;19.254;2023-06-19T02:46:46;17.50;67.80
51215;DHT22;63849;47.546;19.254;2023-06-19T02:49:12;17.40;68.40
51215;DHT22;63849;47.546;19.254;2023-06-19T02:51:37;17.60;68.50
51215;DHT22;63849;47.546;19.254;2023-06-19T02:54:03;17.50;68.40
51215;DHT22;63849;47.546;19.254;2023-06-19T02:56:29;17.40;68.10
51215;DHT22;63849;47.546;19.254;2023-06-19T02:58:55;17.50;68.10
51215;DHT22;63849;47.546;19.254;2023-06-19T03:01:20;17.60;67.90
51215;DHT22;63849;47.546;19.254;2023-06-19T03:03:46;17.60;67.70
51215;DHT22;63849;47.546;19.254;2023-06-19T03:06:13;17.60;68.20
51215;DHT22;63849;47.546;19.254;2023-06-19T03:08:39;17.60;67.80
51215;DHT22;63849;47.546;19.254;2023-06-19T03:11:05;17.70;67.70
51215;DHT22;63849;47.546;19.254;2023-06-19T03:13:54;17.70;67.70
51215;DHT22;63849;47.546;19.254;2023-06-19T03:16:20;17.70;67.50
51215;DHT22;63849;47.546;19.254;2023-06-19T03:18:46;17.70;67.40
51215;DHT22;63849;47.546;19.254;2023-06-19T03:21:15;17.70;67.40
51215;DHT22;63849;47.546;19.254;2023-06-19T03:23:41;17.70;67.60
51215;DHT22;63849;47.546;19.254;2023-06-19T03:26:08;17.70;67.40
51215;DHT22;63849;47.546;19.254;2023-06-19T03:28:34;17.80;67.70
51215;DHT22;63849;47.546;19.254;2023-06-19T03:31:00;17.80;67.80
51215;DHT22;63849;47.546;19.254;2023-06-19T03:43:45;17.90;68.30
51215;DHT22;63849;47.546;19.254;2023-06-19T03:46:11;18.00;68.40
51215;DHT22;63849;47.546;19.254;2023-06-19T03:48:37;18.00;68.50
51215;DHT22;63849;47.546;19.254;2023-06-19T03:51:03;18.10;68.30
51215;DHT22;63849;47.546;19.254;2023-06-19T03:53:29;18.10;68.00
51215;DHT22;63849;47.546;19.254;2023-06-19T03:55:54;18.20;67.20
51215;DHT22;63849;47.546;19.254;2023-06-19T03:58:20;18.40;67.50
51215;DHT22;63849;47.546;19.254;2023-06-19T04:00:46;18.50;67.90
51215;DHT22;63849;47.546;19.254;2023-06-19T04:03:12;18.60;67.30
51215;DHT22;63849;47.546;19.254;2023-06-19T04:05:38;18.60;67.00
51215;DHT22;63849;47.546;19.254;2023-06-19T04:08:05;18.70;66.60
51215;DHT22;63849;47.546;19.254;2023-06-19T04:10:30;18.80;66.80
51215;DHT22;63849;47.546;19.254;2023-06-19T04:12:56;18.90;67.50
51215;DHT22;63849;47.546;19.254;2023-06-19T04:15:22;18.90;68.00
51215;DHT22;63849;47.546;19.254;2023-06-19T04:17:48;19.00;68.30
51215;DHT22;63849;47.546;19.254;2023-06-19T04:20:14;19.10;68.40
51215;DHT22;63849;47.546;19.254;2023-06-19T04:22:41;19.20;67.50
51215;DHT22;63849;47.546;19.254;2023-06-19T04:25:07;19.30;67.10
51215;DHT22;63849;47.546;19.254;2023-06-19T04:27:34;19.40;67.40
51215;DHT22;63849;47.546;19.254;2023-06-19T04:30:02;19.40;66.90
51215;DHT22;63849;47.546;19.254;2023-06-19T04:32:28;19.50;66.00
51215;DHT22;63849;47.546;19.254;2023-06-19T04:34:54;19.60;67.10
51215;DHT22;63849;47.546;19.254;2023-06-19T04:37:19;19.70;65.50
51215;DHT22;63849;47.546;19.254;2023-06-19T04:39:46;19.80;64.90
51215;DHT22;63849;47.546;19.254;2023-06-19T04:42:16;19.90;64.60
51215;DHT22;63849;47.546;19.254;2023-06-19T04:44:49;20.00;64.70
51215;DHT22;63849;47.546;19.254;2023-06-19T04:47:17;20.10;65.20
51215;DHT22;63849;47.546;19.254;2023-06-19T04:49:43;20.00;65.00
51215;DHT22;63849;47.546;19.254;2023-06-19T04:52:09;20.00;65.30
51215;DHT22;63849;47.546;19.254;2023-06-19T04:54:37;20.10;65.40
51215;DHT22;63849;47.546;19.254;2023-06-19T04:57:03;20.20;65.80
51215;DHT22;63849;47.546;19.254;2023-06-19T04:59:28;20.40;65.40
51215;DHT22;63849;47.546;19.254;2023-06-19T05:01:56;20.50;65.10
51215;DHT22;63849;47.546;19.254;2023-06-19T05:04:23;20.70;64.70
51215;DHT22;63849;47.546;19.254;2023-06-19T05:06:49;20.80;64.70
51215;DHT22;63849;47.546;19.254;2023-06-19T05:09:15;21.10;64.10
51215;DHT22;63849;47.546;19.254;2023-06-19T05:11:41;21.30;64.20
51215;DHT22;63849;47.546;19.254;2023-06-19T05:14:07;21.50;64.50
51215;DHT22;63849;47.546;19.254;2023-06-19T05:16:33;21.50;64.00
51215;DHT22;63849;47.546;19.254;2023-06-19T05:18:59;21.50;63.90
51215;DHT22;63849;47.546;19.254;2023-06-19T05:21:25;22.00;63.50
51215;DHT22;63849;47.546;19.254;2023-06-19T05:23:51;22.20;62.20
51215;DHT22;63849;47.546;19.254;2023-06-19T05:26:19;22.40;61.70
51215;DHT22;63849;47.546;19.254;2023-06-19T05:28:45;22.70;61.60
51215;DHT22;63849;47.546;19.254;2023-06-19T05:31:11;23.10;60.50
51215;DHT22;63849;47.546;19.254;2023-06-19T05:33:37;24.10;58.40
51215;DHT22;63849;47.546;19.254;2023-06-19T05:36:03;24.90;55.30
51215;DHT22;63849;47.546;19.254;2023-06-19T05:38:29;25.60;54.00
51215;DHT22;63849;47.546;19.254;2023-06-19T05:40:56;26.40;51.00
51215;DHT22;63849;47.546;19.254;2023-06-19T05:43:22;26.50;50.30
51215;DHT22;63849;47.546;19.254;2023-06-19T05:45:50;25.60;52.00
51215;DHT22;63849;47.546;19.254;2023-06-19T05:48:16;25.30;53.00
51215;DHT22;63849;47.546;19.254;2023-06-19T05:50:41;25.10;53.60
51215;DHT22;63849;47.546;19.254;2023-06-19T05:53:07;25.60;53.00
51215;DHT22;63849;47.546;19.254;2023-06-19T05:55:33;26.40;51.90
51215;DHT22;63849;47.546;19.254;2023-06-19T05:57:59;26.90;49.40
51215;DHT22;63849;47.546;19.254;2023-06-19T06:00:24;27.60;49.70
51215;DHT22;63849;47.546;19.254;2023-06-19T06:02:50;28.20;46.80
51215;DHT22;63849;47.546;19.254;2023-06-19T06:05:17;28.80;45.60
51215;DHT22;63849;47.546;19.254;2023-06-19T06:07:44;29.00;45.50
51215;DHT22;63849;47.546;19.254;2023-06-19T06:10:11;28.90;45.40
51215;DHT22;63849;47.546;19.254;2023-06-19T06:12:37;29.40;43.20
51215;DHT22;63849;47.546;19.254;2023-06-19T06:15:04;29.80;43.00
51215;DHT22;63849;47.546;19.254;2023-06-19T06:17:31;29.90;42.90
51215;DHT22;63849;47.546;19.254;2023-06-19T06:19:56;30.50;41.30
51215;DHT22;63849;47.546;19.254;2023-06-19T06:22:22;31.00;40.50
51215;DHT22;63849;47.546;19.254;2023-06-19T06:24:48;31.20;39.30
51215;DHT22;63849;47.546;19.254;2023-06-19T06:27:14;31.00;39.80
51215;DHT22;63849;47.546;19.254;2023-06-19T06:29:40;30.90;40.80
51215;DHT22;63849;47.546;19.254;2023-06-19T06:32:07;30.80;39.60
51215;DHT22;63849;47.546;19.254;2023-06-19T06:34:33;30.40;40.00
51215;DHT22;63849;47.546;19.254;2023-06-19T06:37:00;30.90;39.60
51215;DHT22;63849;47.546;19.254;2023-06-19T06:39:26;31.40;39.00
51215;DHT22;63849;47.546;19.254;2023-06-19T06:41:52;31.50;38.70
51215;DHT22;63849;47.546;19.254;2023-06-19T06:44:17;31.90;37.80
51215;DHT22;63849;47.546;19.254;2023-06-19T06:46:43;32.00;38.20
51215;DHT22;63849;47.546;19.254;2023-06-19T06:49:09;31.70;37.30
51215;DHT22;63849;47.546;19.254;2023-06-19T06:51:35;31.60;37.40
51215;DHT22;63849;47.546;19.254;2023-06-19T06:54:00;32.20;37.60
51215;DHT22;63849;47.546;19.254;2023-06-19T06:56:26;32.30;36.30
51215;DHT22;63849;47.546;19.254;2023-06-19T06:58:52;32.20;35.30
51215;DHT22;63849;47.546;19.254;2023-06-19T07:01:17;32.40;36.80
51215;DHT22;63849;47.546;19.254;2023-06-19T07:03:43;33.00;35.10
51215;DHT22;63849;47.546;19.254;2023-06-19T07:06:09;33.20;34.40
51215;DHT22;63849;47.546;19.254;2023-06-19T07:08:35;33.10;35.90
51215;DHT22;63849;47.546;19.254;2023-06-19T07:11:00;33.40;34.80
51215;DHT22;63849;47.546;19.254;2023-06-19T07:13:26;33.20;34.50
51215;DHT22;63849;47.546;19.254;2023-06-19T07:15:52;33.30;34.70
51215;DHT22;63849;47.546;19.254;2023-06-19T07:18:18;33.50;32.90
51215;DHT22;63849;47.546;19.254;2023-06-19T07:20:44;33.80;33.00
51215;DHT22;63849;47.546;19.254;2023-06-19T07:23:10;33.70;32.90
51215;DHT22;63849;47.546;19.254;2023-06-19T07:25:36;33.90;33.00
51215;DHT22;63849;47.546;19.254;2023-06-19T07:28:02;33.60;33.50
51215;DHT22;63849;47.546;19.254;2023-06-19T07:30:31;34.30;31.30
51215;DHT22;63849;47.546;19.254;2023-06-19T07:32:56;34.30;32.30
51215;DHT22;63849;47.546;19.254;2023-06-19T07:35:22;34.00;31.90
51215;DHT22;63849;47.546;19.254;2023-06-19T07:37:48;33.60;34.20
51215;DHT22;63849;47.546;19.254;2023-06-19T07:40:14;34.20;33.50
51215;DHT22;63849;47.546;19.254;2023-06-19T07:42:40;34.20;31.90
51215;DHT22;63849;47.546;19.254;2023-06-19T07:45:06;34.20;32.00
51215;DHT22;63849;47.546;19.254;2023-06-19T07:47:32;34.10;32.20
51215;DHT22;63849;47.546;19.254;2023-06-19T07:49:57;34.20;32.10
51215;DHT22;63849;47.546;19.254;2023-06-19T07:52:23;33.50;33.20
51215;DHT22;63849;47.546;19.254;2023-06-19T07:54:54;33.10;32.20
51215;DHT22;63849;47.546;19.254;2023-06-19T07:57:21;32.90;35.30
51215;DHT22;63849;47.546;19.254;2023-06-19T07:59:49;32.60;34.70
51215;DHT22;63849;47.546;19.254;2023-06-19T08:02:15;31.50;37.50
51215;DHT22;63849;47.546;19.254;2023-06-19T08:04:41;31.20;38.80
51215;DHT22;63849;47.546;19.254;2023-06-19T08:07:07;31.10;39.00
51215;DHT22;63849;47.546;19.254;2023-06-19T08:09:33;30.70;38.60
51215;DHT22;63849;47.546;19.254;2023-06-19T08:11:59;30.10;40.60
51215;DHT22;63849;47.546;19.254;2023-06-19T08:14:25;29.50;42.60
51215;DHT22;63849;47.546;19.254;2023-06-19T08:16:50;29.20;41.90
51215;DHT22;63849;47.546;19.254;2023-06-19T08:19:16;29.00;42.20
51215;DHT22;63849;47.546;19.254;2023-06-19T08:21:42;28.80;41.80
51215;DHT22;63849;47.546;19.254;2023-06-19T08:24:08;28.20;43.90
51215;DHT22;63849;47.546;19.254;2023-06-19T08:26:33;28.40;45.60
51215;DHT22;63849;47.546;19.254;2023-06-19T08:28:59;28.40;44.40
51215;DHT22;63849;47.546;19.254;2023-06-19T08:31:25;28.20;41.90
51215;DHT22;63849;47.546;19.254;2023-06-19T08:33:56;28.10;43.50
51215;DHT22;63849;47.546;19.254;2023-06-19T08:36:22;27.90;45.10
51215;DHT22;63849;47.546;19.254;2023-06-19T08:38:48;27.90;48.10
51215;DHT22;63849;47.546;19.254;2023-06-19T08:41:18;27.70;45.20
51215;DHT22;63849;47.546;19.254;2023-06-19T08:43:47;27.60;44.10
51215;DHT22;63849;47.546;19.254;2023-06-19T08:46:17;27.50;44.80
51215;DHT22;63849;47.546;19.254;2023-06-19T08:48:44;27.50;45.00
51215;DHT22;63849;47.546;19.254;2023-06-19T08:51:10;27.40;44.60
51215;DHT22;63849;47.546;19.254;2023-06-19T08:53:45;27.30;43.90
51215;DHT22;63849;47.546;19.254;2023-06-19T08:56:11;27.30;45.90
51215;DHT22;63849;47.546;19.254;2023-06-19T08:58:37;27.40;45.50
51215;DHT22;63849;47.546;19.254;2023-06-19T09:01:03;27.40;45.20
51215;DHT22;63849;47.546;19.254;2023-06-19T09:03:29;27.40;48.10
51215;DHT22;63849;47.546;19.254;2023-06-19T09:05:55;27.50;49.10
51215;DHT22;63849;47.546;19.254;2023-06-19T09:08:22;27.50;47.60
51215;DHT22;63849;47.546;19.254;2023-06-19T09:11:04;27.50;48.70
51215;DHT22;63849;47.546;19.254;2023-06-19T09:13:31;27.60;44.70
51215;DHT22;63849;47.546;19.254;2023-06-19T09:16:08;27.40;48.00
51215;DHT22;63849;47.546;19.254;2023-06-19T09:18:47;27.10;45.40
51215;DHT22;63849;47.546;19.254;2023-06-19T09:21:20;27.10;46.80
51215;DHT22;63849;47.546;19.254;2023-06-19T09:23:48;27.10;46.40
51215;DHT22;63849;47.546;19.254;2023-06-19T09:26:17;27.10;46.10
51215;DHT22;63849;47.546;19.254;2023-06-19T09:28:45;27.20;45.70
51215;DHT22;63849;47.546;19.254;2023-06-19T09:31:12;27.20;44.60
51215;DHT22;63849;47.546;19.254;2023-06-19T09:33:39;27.20;42.80
51215;DHT22;63849;47.546;19.254;2023-06-19T09:36:05;27.00;44.20
51215;DHT22;63849;47.546;19.254;2023-06-19T09:38:38;27.10;45.50
51215;DHT22;63849;47.546;19.254;2023-06-19T09:41:06;27.10;45.50
51215;DHT22;63849;47.546;19.254;2023-06-19T09:43:43;27.10;44.20
51215;DHT22;63849;47.546;19.254;2023-06-19T09:46:10;27.20;46.20
51215;DHT22;63849;47.546;19.254;2023-06-19T09:48:41;27.20;45.10
51215;DHT22;63849;47.546;19.254;2023-06-19T09:51:17;27.20;45.60
51215;DHT22;63849;47.546;19.254;2023-06-19T09:53:48;27.30;41.20
51215;DHT22;63849;47.546;19.254;2023-06-19T09:56:15;27.30;42.80
51215;DHT22;63849;47.546;19.254;2023-06-19T09:58:42;27.20;45.20
51215;DHT22;63849;47.546;19.254;2023-06-19T10:01:09;27.30;45.50
51215;DHT22;63849;47.546;19.254;2023-06-19T10:03:36;27.20;45.20
51215;DHT22;63849;47.546;19.254;2023-06-19T10:06:03;27.30;43.50
51215;DHT22;63849;47.546;19.254;2023-06-19T10:08:43;27.30;45.40
51215;DHT22;63849;47.546;19.254;2023-06-19T10:11:10;27.40;43.60
51215;DHT22;63849;47.546;19.254;2023-06-19T10:13:38;27.30;44.40
51215;DHT22;63849;47.546;19.254;2023-06-19T10:16:05;27.40;45.10
51215;DHT22;63849;47.546;19.254;2023-06-19T10:18:32;27.20;41.60
51215;DHT22;63849;47.546;19.254;2023-06-19T10:20:58;27.10;43.40
51215;DHT22;63849;47.546;19.254;2023-06-19T10:23:25;27.10;43.60
51215;DHT22;63849;47.546;19.254;2023-06-19T10:30:59;27.20;43.10
51215;DHT22;63849;47.546;19.254;2023-06-19T10:33:28;27.30;44.60
51215;DHT22;63849;47.546;19.254;2023-06-19T10:35:54;27.30;43.40
51215;DHT22;63849;47.546;19.254;2023-06-19T10:38:20;27.40;43.80
51215;DHT22;63849;47.546;19.254;2023-06-19T10:40:46;27.20;40.90
51215;DHT22;63849;47.546;19.254;2023-06-19T10:43:19;27.20;43.60
51215;DHT22;63849;47.546;19.254;2023-06-19T10:45:45;27.20;44.40
51215;DHT22;63849;47.546;19.254;2023-06-19T10:48:10;27.20;44.10
51215;DHT22;63849;47.546;19.254;2023-06-19T10:50:42;27.30;42.50
51215;DHT22;63849;47.546;19.254;2023-06-19T10:53:08;27.30;42.70
51215;DHT22;63849;47.546;19.254;2023-06-19T10:55:34;27.20;41.60
51215;DHT22;63849;47.546;19.254;2023-06-19T10:58:00;27.10;43.80
51215;DHT22;63849;47.546;19.254;2023-06-19T11:00:28;27.10;45.20
51215;DHT22;63849;47.546;19.254;2023-06-19T11:02:58;27.10;45.20
51215;DHT22;63849;47.546;19.254;2023-06-19T11:05:26;27.10;45.40
51215;DHT22;63849;47.546;19.254;2023-06-19T11:07:57;27.10;43.70
51215;DHT22;63849;47.546;19.254;2023-06-19T11:10:25;27.20;42.50
51215;DHT22;63849;47.546;19.254;2023-06-19T11:12:56;27.10;44.50
51215;DHT22;63849;47.546;19.254;2023-06-19T11:15:32;27.10;46.80
51215;DHT22;63849;47.546;19.254;2023-06-19T11:18:00;27.20;45.80
51215;DHT22;63849;47.546;19.254;2023-06-19T11:20:26;27.20;44.90
51215;DHT22;63849;47.546;19.254;2023-06-19T11:22:56;27.20;45.60
51215;DHT22;63849;47.546;19.254;2023-06-19T11:25:23;27.20;42.90
51215;DHT22;63849;47.546;19.254;2023-06-19T11:27:49;27.30;44.60
51215;DHT22;63849;47.546;19.254;2023-06-19T11:30:18;27.30;45.60
51215;DHT22;63849;47.546;19.254;2023-06-19T11:32:46;27.40;45.70
51215;DHT22;63849;47.546;19.254;2023-06-19T11:35:15;27.50;44.30
51215;DHT22;63849;47.546;19.254;2023-06-19T11:37:43;27.40;44.40
51215;DHT22;63849;47.546;19.254;2023-06-19T11:40:09;27.40;42.70
51215;DHT22;63849;47.546;19.254;2023-06-19T11:42:52;27.40;43.20
51215;DHT22;63849;47.546;19.254;2023-06-19T11:45:18;27.40;44.30
51215;DHT22;63849;47.546;19.254;2023-06-19T11:47:45;27.40;44.20
51215;DHT22;63849;47.546;19.254;2023-06-19T11:50:13;27.50;42.10
51215;DHT22;63849;47.546;19.254;2023-06-19T11:52:42;27.50;42.00
51215;DHT22;63849;47.546;19.254;2023-06-19T11:55:08;27.50;42.00
51215;DHT22;63849;47.546;19.254;2023-06-19T11:57:34;27.50;43.10
51215;DHT22;63849;47.546;19.254;2023-06-19T12:00:00;27.50;44.20
51215;DHT22;63849;47.546;19.254;2023-06-19T12:02:26;27.40;43.10
51215;DHT22;63849;47.546;19.254;2023-06-19T12:04:52;27.40;43.40
51215;DHT22;63849;47.546;19.254;2023-06-19T12:07:19;27.40;42.90
51215;DHT22;63849;47.546;19.254;2023-06-19T12:09:45;27.40;42.30
51215;DHT22;63849;47.546;19.254;2023-06-19T12:12:11;27.40;43.10
51215;DHT22;63849;47.546;19.254;2023-06-19T12:14:36;27.40;42.20
51215;DHT22;63849;47.546;19.254;2023-06-19T12:17:02;27.30;41.70
51215;DHT22;63849;47.546;19.254;2023-06-19T12:19:28;27.40;42.50
51215;DHT22;63849;47.546;19.254;2023-06-19T12:21:54;27.40;42.70
51215;DHT22;63849;47.546;19.254;2023-06-19T12:24:20;27.50;41.20
51215;DHT22;63849;47.546;19.254;2023-06-19T12:26:46;27.50;43.30
51215;DHT22;63849;47.546;19.254;2023-06-19T12:29:11;27.50;41.30
51215;DHT22;63849;47.546;19.254;2023-06-19T12:31:37;27.50;41.60
51215;DHT22;63849;47.546;19.254;2023-06-19T12:34:03;27.50;41.60
51215;DHT22;63849;47.546;19.254;2023-06-19T12:36:31;27.50;42.00
51215;DHT22;63849;47.546;19.254;2023-06-19T12:38:58;27.50;41.70
51215;DHT22;63849;47.546;19.254;2023-06-19T12:41:24;27.40;42.10
51215;DHT22;63849;47.546;19.254;2023-06-19T12:43:50;27.50;41.30
51215;DHT22;63849;47.546;19.254;2023-06-19T12:46:16;27.50;45.50
51215;DHT22;63849;47.546;19.254;2023-06-19T12:48:42;27.70;44.90
51215;DHT22;63849;47.546;19.254;2023-06-19T12:51:08;27.80;44.50
51215;DHT22;63849;47.546;19.254;2023-06-19T12:53:34;28.00;41.10
51215;DHT22;63849;47.546;19.254;2023-06-19T12:56:00;28.10;40.90
51215;DHT22;63849;47.546;19.254;2023-06-19T12:58:26;28.30;43.70
51215;DHT22;63849;47.546;19.254;2023-06-19T13:00:53;28.40;44.10
51215;DHT22;63849;47.546;19.254;2023-06-19T13:03:19;28.40;42.00
51215;DHT22;63849;47.546;19.254;2023-06-19T13:05:46;28.50;39.80
51215;DHT22;63849;47.546;19.254;2023-06-19T13:08:11;28.50;42.00
51215;DHT22;63849;47.546;19.254;2023-06-19T13:10:37;28.50;39.00
51215;DHT22;63849;47.546;19.254;2023-06-19T13:13:04;28.50;40.70
51215;DHT22;63849;47.546;19.254;2023-06-19T13:15:31;28.40;38.90
51215;DHT22;63849;47.546;19.254;2023-06-19T13:17:59;28.40;38.60
51215;DHT22;63849;47.546;19.254;2023-06-19T13:20:25;28.40;40.50
51215;DHT22;63849;47.546;19.254;2023-06-19T13:22:51;28.40;39.90
51215;DHT22;63849;47.546;19.254;2023-06-19T13:25:18;28.50;40.10
51215;DHT22;63849;47.546;19.254;2023-06-19T13:27:44;28.40;41.10
51215;DHT22;63849;47.546;19.254;2023-06-19T13:30:11;28.50;39.20
51215;DHT22;63849;47.546;19.254;2023-06-19T13:32:37;28.50;38.70
51215;DHT22;63849;47.546;19.254;2023-06-19T13:35:05;28.50;38.50
51215;DHT22;63849;47.546;19.254;2023-06-19T13:37:36;28.50;38.90
51215;DHT22;63849;47.546;19.254;2023-06-19T13:40:04;28.30;40.20
51215;DHT22;63849;47.546;19.254;2023-06-19T13:42:31;28.20;40.20
51215;DHT22;63849;47.546;19.254;2023-06-19T13:44:57;28.20;41.10
51215;DHT22;63849;47.546;19.254;2023-06-19T13:47:23;28.20;41.20
51215;DHT22;63849;47.546;19.254;2023-06-19T13:49:51;28.30;41.20
51215;DHT22;63849;47.546;19.254;2023-06-19T13:52:17;28.30;40.30
51215;DHT22;63849;47.546;19.254;2023-06-19T13:54:43;28.30;40.70
51215;DHT22;63849;47.546;19.254;2023-06-19T13:57:08;28.40;40.70
51215;DHT22;63849;47.546;19.254;2023-06-19T13:59:35;28.20;41.00
51215;DHT22;63849;47.546;19.254;2023-06-19T14:02:00;28.20;40.70
51215;DHT22;63849;47.546;19.254;2023-06-19T14:04:26;28.20;40.60
51215;DHT22;63849;47.546;19.254;2023-06-19T14:06:52;28.40;40.60
51215;DHT22;63849;47.546;19.254;2023-06-19T14:09:20;28.40;40.80
51215;DHT22;63849;47.546;19.254;2023-06-19T14:11:46;28.30;41.00
51215;DHT22;63849;47.546;19.254;2023-06-19T14:14:12;28.40;41.10
51215;DHT22;63849;47.546;19.254;2023-06-19T14:16:38;28.30;40.40
51215;DHT22;63849;47.546;19.254;2023-06-19T14:19:03;28.30;40.90
51215;DHT22;63849;47.546;19.254;2023-06-19T14:21:29;28.40;41.00
51215;DHT22;63849;47.546;19.254;2023-06-19T14:23:55;28.40;40.20
51215;DHT22;63849;47.546;19.254;2023-06-19T14:26:20;28.40;39.70
51215;DHT22;63849;47.546;19.254;2023-06-19T14:28:46;28.40;40.50
51215;DHT22;63849;47.546;19.254;2023-06-19T14:31:12;28.30;40.40
51215;DHT22;63849;47.546;19.254;2023-06-19T14:33:38;28.40;40.40
51215;DHT22;63849;47.546;19.254;2023-06-19T14:36:04;28.20;39.90
51215;DHT22;63849;47.546;19.254;2023-06-19T14:38:30;28.20;40.00
51215;DHT22;63849;47.546;19.254;2023-06-19T14:41:00;28.00;39.80
51215;DHT22;63849;47.546;19.254;2023-06-19T14:43:29;27.90;39.70
51215;DHT22;63849;47.546;19.254;2023-06-19T14:45:55;27.80;40.30
51215;DHT22;63849;47.546;19.254;2023-06-19T14:48:21;27.80;40.60
51215;DHT22;63849;47.546;19.254;2023-06-19T14:50:47;27.70;41.30
51215;DHT22;63849;47.546;19.254;2023-06-19T14:53:13;27.60;41.10
51215;DHT22;63849;47.546;19.254;2023-06-19T14:55:39;27.60;41.50
51215;DHT22;63849;47.546;19.254;2023-06-19T14:58:09;27.70;41.00
51215;DHT22;63849;47.546;19.254;2023-06-19T15:00:34;27.80;41.60
51215;DHT22;63849;47.546;19.254;2023-06-19T15:03:04;27.80;41.20
51215;DHT22;63849;47.546;19.254;2023-06-19T15:05:30;27.80;40.60
51215;DHT22;63849;47.546;19.254;2023-06-19T15:07:56;27.70;41.30
51215;DHT22;63849;47.546;19.254;2023-06-19T15:10:21;27.70;41.10
51215;DHT22;63849;47.546;19.254;2023-06-19T15:12:47;27.70;40.70
51215;DHT22;63849;47.546;19.254;2023-06-19T15:15:13;27.70;40.70
51215;DHT22;63849;47.546;19.254;2023-06-19T15:17:39;27.60;42.10
51215;DHT22;63849;47.546;19.254;2023-06-19T15:20:05;27.70;42.00
51215;DHT22;63849;47.546;19.254;2023-06-19T15:22:31;27.70;41.10
51215;DHT22;63849;47.546;19.254;2023-06-19T15:24:57;27.60;42.60
51215;DHT22;63849;47.546;19.254;2023-06-19T15:27:22;27.60;41.10
51215;DHT22;63849;47.546;19.254;2023-06-19T15:29:48;27.50;42.10